Time;durP1;ratioP1;P1;durP2;ratioP2;P2;SDS_P1;SDS_P2;PMS_P1;PMS_P2;Temp;Humidity;BMP_temperature;BMP_pressure;BME280_temperature;BME280_humidity;BME280_pressure;Samples;Min_cycle;Max_cycle;Signal;HPM_P1;HPM_P2
2022/11/14 00:00:29;;;;;;;3.65;2.80;;;9.30;99.90;;;;;;4997196;28;20422;-88
2022/11/14 00:02:59;;;;;;;3.38;2.50;;;9.20;99.90;;;;;;4995134;28;20512;-89
2022/11/14 00:05:26;;;;;;;3.35;2.40;;;9.20;99.90;;;;;;5010620;28;20057;-88
2022/11/14 00:07:53;;;;;;;2.72;2.35;;;9.10;99.90;;;;;;5015611;28;20048;-89
2022/11/14 00:10:20;;;;;;;3.00;2.50;;;9.10;99.90;;;;;;5016029;28;20053;-89
2022/11/14 00:12:46;;;;;;;2.75;2.30;;;9.00;99.90;;;;;;5015873;28;20060;-88
2022/11/14 00:15:13;;;;;;;2.70;2.13;;;9.00;99.90;;;;;;5004591;28;20150;-88
2022/11/14 00:17:40;;;;;;;3.15;2.58;;;9.00;99.90;;;;;;4996623;28;20075;-89
2022/11/14 00:20:08;;;;;;;2.75;2.38;;;9.00;99.90;;;;;;4996949;28;20560;-90
2022/11/14 00:22:35;;;;;;;2.88;2.22;;;8.90;99.90;;;;;;4996666;28;20062;-89
2022/11/14 00:25:01;;;;;;;3.45;2.40;;;8.90;99.90;;;;;;5003144;28;20052;-87
2022/11/14 00:27:28;;;;;;;2.67;2.17;;;8.90;99.90;;;;;;5029687;28;20135;-89
2022/11/14 00:29:55;;;;;;;3.15;2.28;;;8.90;99.90;;;;;;5013232;28;20513;-89
2022/11/14 00:32:22;;;;;;;3.25;2.47;;;8.90;99.90;;;;;;5012885;28;20081;-89
2022/11/14 00:34:49;;;;;;;2.38;2.08;;;8.80;99.90;;;;;;5024467;28;20148;-88
2022/11/14 00:37:16;;;;;;;2.92;2.40;;;8.90;99.90;;;;;;5013619;28;20157;-88
2022/11/14 00:39:42;;;;;;;3.50;2.33;;;8.90;99.90;;;;;;5012743;28;20049;-89
2022/11/14 00:42:09;;;;;;;2.97;2.20;;;8.80;99.90;;;;;;5013371;28;20054;-88
2022/11/14 00:44:36;;;;;;;2.97;2.40;;;8.90;99.90;;;;;;5018654;28;20055;-88
2022/11/14 00:47:03;;;;;;;2.83;2.33;;;8.80;99.90;;;;;;5015913;28;20063;-89
2022/11/14 00:49:30;;;;;;;2.58;2.13;;;8.80;99.90;;;;;;5015106;28;20148;-89
2022/11/14 00:51:57;;;;;;;2.30;1.98;;;8.80;99.90;;;;;;5015899;28;20154;-89
2022/11/14 00:54:25;;;;;;;2.50;2.20;;;8.80;99.90;;;;;;5012484;28;20442;-89
2022/11/14 00:56:52;;;;;;;2.58;2.08;;;8.90;99.90;;;;;;5012258;28;20049;-89
2022/11/14 00:59:19;;;;;;;2.60;2.00;;;8.90;99.90;;;;;;5012352;28;20599;-89
2022/11/14 01:01:46;;;;;;;2.20;1.80;;;8.90;99.90;;;;;;5011940;28;20064;-89
2022/11/14 01:04:12;;;;;;;2.25;1.77;;;8.90;99.90;;;;;;5014587;28;20045;-89
2022/11/14 01:06:39;;;;;;;1.75;1.55;;;8.80;99.90;;;;;;5015100;28;20471;-88
2022/11/14 01:09:06;;;;;;;2.55;2.15;;;8.90;99.90;;;;;;5015727;28;20052;-88
2022/11/14 01:11:33;;;;;;;2.90;2.20;;;8.90;99.90;;;;;;5015518;28;20053;-88
2022/11/14 01:14:00;;;;;;;3.05;2.33;;;8.90;99.90;;;;;;5015546;28;20052;-88
2022/11/14 01:16:27;;;;;;;3.97;3.22;;;9.00;99.90;;;;;;5015032;28;20057;-88
2022/11/14 01:18:53;;;;;;;3.47;2.53;;;9.00;99.90;;;;;;5014947;28;20057;-88
2022/11/14 01:21:20;;;;;;;3.30;2.50;;;9.00;99.90;;;;;;5015150;28;20132;-88
2022/11/14 01:23:47;;;;;;;3.42;2.45;;;9.10;99.90;;;;;;5015557;28;20472;-87
2022/11/14 01:26:14;;;;;;;4.10;2.88;;;9.10;99.90;;;;;;5014898;28;20052;-87
2022/11/14 01:28:41;;;;;;;3.47;2.70;;;9.10;99.90;;;;;;5015917;28;20148;-88
2022/11/14 01:31:19;;;;;;;4.47;3.45;;;9.20;99.90;;;;;;5014725;28;20067;-88
2022/11/14 01:33:49;;;;;;;3.38;2.75;;;9.20;99.90;;;;;;5014321;28;20063;-88
2022/11/14 01:36:16;;;;;;;3.45;2.75;;;9.20;99.90;;;;;;5014579;28;20126;-87
2022/11/14 01:38:43;;;;;;;4.13;3.10;;;9.30;99.90;;;;;;5015689;28;20139;-87
2022/11/14 01:41:14;;;;;;;4.15;3.45;;;9.30;99.90;;;;;;5015136;28;20055;-88
2022/11/14 01:43:41;;;;;;;4.20;3.40;;;9.40;99.90;;;;;;5015340;28;20053;-87
2022/11/14 01:46:18;;;;;;;3.95;3.10;;;9.40;99.90;;;;;;4996790;28;20084;-88
2022/11/14 01:48:46;;;;;;;4.28;3.42;;;9.40;99.90;;;;;;5012185;28;20054;-87
2022/11/14 01:51:30;;;;;;;3.78;2.72;;;9.40;99.90;;;;;;5027000;28;20057;-88
2022/11/14 01:53:58;;;;;;;3.63;3.22;;;9.50;99.90;;;;;;5027179;28;20492;-87
2022/11/14 01:56:34;;;;;;;3.90;2.80;;;9.50;99.90;;;;;;5010955;28;20056;-88
2022/11/14 01:59:10;;;;;;;3.25;2.60;;;9.60;99.90;;;;;;4997792;28;20060;-88
2022/11/14 02:01:42;;;;;;;3.00;2.50;;;9.60;99.90;;;;;;5015582;28;20391;-88
2022/11/14 02:04:08;;;;;;;2.92;2.60;;;9.70;99.90;;;;;;5000610;28;20100;-89
2022/11/14 02:06:40;;;;;;;2.90;2.40;;;9.70;99.90;;;;;;5021846;28;20049;-89
2022/11/14 02:09:07;;;;;;;2.92;2.35;;;9.80;99.90;;;;;;5019104;28;20056;-89
2022/11/14 02:11:37;;;;;;;3.40;2.70;;;9.80;99.90;;;;;;5020811;28;20052;-88
2022/11/14 02:14:03;;;;;;;2.97;2.30;;;9.90;99.90;;;;;;5018954;28;20059;-88
2022/11/14 02:16:30;;;;;;;3.83;3.13;;;9.90;99.90;;;;;;5017953;28;20723;-88
2022/11/14 02:18:57;;;;;;;3.33;2.95;;;10.00;99.90;;;;;;5012778;28;20257;-88
2022/11/14 02:21:24;;;;;;;3.30;2.42;;;10.00;99.90;;;;;;5012962;28;20059;-89
2022/11/14 02:23:51;;;;;;;3.63;2.88;;;10.00;99.90;;;;;;5012853;28;20052;-88
2022/11/14 02:26:18;;;;;;;3.53;2.90;;;10.00;99.90;;;;;;5012140;28;20061;-89
2022/11/14 02:28:45;;;;;;;3.17;2.88;;;10.00;99.90;;;;;;5011665;28;20518;-88
2022/11/14 02:31:12;;;;;;;2.67;2.13;;;10.10;99.90;;;;;;5010725;28;20053;-88
2022/11/14 02:33:39;;;;;;;2.30;2.03;;;10.10;99.90;;;;;;5014948;28;20461;-89
2022/11/14 02:36:06;;;;;;;3.05;2.53;;;10.10;99.90;;;;;;5011817;28;20042;-88
2022/11/14 02:38:33;;;;;;;3.42;2.65;;;10.10;99.90;;;;;;4995079;28;20056;-88
2022/11/14 02:41:00;;;;;;;2.83;2.50;;;10.20;99.90;;;;;;4995617;28;20076;-89
2022/11/14 02:43:27;;;;;;;2.90;2.22;;;10.20;99.90;;;;;;4995779;28;20147;-88
2022/11/14 02:45:54;;;;;;;2.58;2.05;;;10.20;99.90;;;;;;5026596;28;20164;-89
2022/11/14 02:48:21;;;;;;;3.03;2.38;;;10.20;99.90;;;;;;5014356;28;20485;-89
2022/11/14 02:50:48;;;;;;;3.20;2.80;;;10.20;99.90;;;;;;5014792;28;20049;-88
2022/11/14 02:53:15;;;;;;;2.63;1.88;;;10.10;99.90;;;;;;5005247;28;20049;-86
2022/11/14 02:55:42;;;;;;;2.60;2.03;;;10.20;99.90;;;;;;5021689;28;20419;-89
2022/11/14 02:58:09;;;;;;;2.33;1.80;;;10.10;99.90;;;;;;5028299;28;20053;-89
2022/11/14 03:00:35;;;;;;;2.95;2.30;;;10.10;99.90;;;;;;5028173;28;20060;-88
2022/11/14 03:03:22;;;;;;;2.13;1.83;;;10.10;99.90;;;;;;5027495;28;20045;-89
2022/11/14 03:05:52;;;;;;;2.83;2.15;;;10.10;99.90;;;;;;5027669;28;20480;-87
2022/11/14 03:08:19;;;;;;;3.22;2.40;;;10.10;99.90;;;;;;5027724;28;20053;-87
2022/11/14 03:10:45;;;;;;;2.90;2.33;;;10.10;99.90;;;;;;5027896;28;20057;-90
2022/11/14 03:13:12;;;;;;;2.40;1.88;;;10.00;99.90;;;;;;5031833;28;20263;-89
2022/11/14 03:15:39;;;;;;;2.38;1.95;;;10.10;99.90;;;;;;5034944;28;20056;-88
2022/11/14 03:18:06;;;;;;;2.67;2.35;;;10.00;99.90;;;;;;5034467;28;20384;-89
2022/11/14 03:20:33;;;;;;;3.10;2.78;;;10.00;99.90;;;;;;5034723;28;20053;-88
2022/11/14 03:23:00;;;;;;;3.70;2.30;;;10.00;99.90;;;;;;5033496;28;20052;-87
2022/11/14 03:25:27;;;;;;;3.03;2.75;;;10.00;99.90;;;;;;5019608;28;20628;-90
2022/11/14 03:27:54;;;;;;;3.25;2.75;;;10.00;99.90;;;;;;5003020;28;20053;-87
2022/11/14 03:30:20;;;;;;;2.63;2.03;;;9.90;99.90;;;;;;5002625;28;20128;-88
2022/11/14 03:32:47;;;;;;;3.05;2.38;;;9.90;99.90;;;;;;5003301;28;20508;-88
2022/11/14 03:35:14;;;;;;;2.38;1.98;;;9.90;99.90;;;;;;5018897;28;20049;-89
2022/11/14 03:37:41;;;;;;;2.75;2.38;;;9.80;99.90;;;;;;5036229;28;20053;-89
2022/11/14 03:40:08;;;;;;;3.05;2.28;;;9.80;99.90;;;;;;5036312;28;20045;-86
2022/11/14 03:42:35;;;;;;;3.47;2.75;;;9.80;99.90;;;;;;5039187;28;20059;-90
2022/11/14 03:45:02;;;;;;;3.30;2.90;;;9.80;99.90;;;;;;5023663;28;20479;-89
2022/11/14 03:47:29;;;;;;;3.10;2.33;;;9.80;99.90;;;;;;5028489;28;20055;-89
2022/11/14 03:49:56;;;;;;;3.28;2.63;;;9.80;99.90;;;;;;5024049;28;20080;-88
2022/11/14 03:52:24;;;;;;;2.67;2.20;;;9.80;99.90;;;;;;5024511;28;20162;-89
2022/11/14 03:54:51;;;;;;;2.75;2.13;;;9.80;99.90;;;;;;5024715;28;20543;-88
2022/11/14 03:57:18;;;;;;;3.35;2.35;;;9.80;99.90;;;;;;5023230;28;20067;-89
2022/11/14 03:59:45;;;;;;;3.10;2.70;;;9.80;99.90;;;;;;5022991;28;20059;-89
2022/11/14 04:02:13;;;;;;;2.83;2.42;;;9.70;99.90;;;;;;5021681;28;20049;-89
2022/11/14 04:04:40;;;;;;;3.42;2.63;;;9.70;99.90;;;;;;5021046;28;20071;-88
2022/11/14 04:07:07;;;;;;;3.00;2.40;;;9.60;99.90;;;;;;5021131;28;20452;-89
2022/11/14 04:09:34;;;;;;;2.63;2.15;;;9.60;99.90;;;;;;5021666;28;20076;-88
2022/11/14 04:12:00;;;;;;;2.70;2.20;;;9.60;99.90;;;;;;5022353;28;20045;-89
2022/11/14 04:14:27;;;;;;;3.28;2.60;;;9.60;99.90;;;;;;5019400;28;20050;-89
2022/11/14 04:16:54;;;;;;;2.78;2.33;;;9.60;99.90;;;;;;5003150;28;20059;-89
2022/11/14 04:19:21;;;;;;;2.42;1.92;;;9.50;99.90;;;;;;5002689;28;20056;-89
2022/11/14 04:21:48;;;;;;;2.58;2.28;;;9.60;99.90;;;;;;5002982;28;20071;-89
2022/11/14 04:24:15;;;;;;;2.38;1.92;;;9.50;99.90;;;;;;5001486;28;20045;-89
2022/11/14 04:26:42;;;;;;;2.78;2.33;;;9.60;99.90;;;;;;5000512;28;20052;-89
2022/11/14 04:29:08;;;;;;;2.80;2.38;;;9.60;99.90;;;;;;5000699;28;20082;-89
2022/11/14 04:31:35;;;;;;;2.85;2.28;;;9.60;99.90;;;;;;5000452;28;20401;-89
2022/11/14 04:34:02;;;;;;;2.70;2.10;;;9.60;99.90;;;;;;5011071;28;20148;-89
2022/11/14 04:36:29;;;;;;;2.58;2.28;;;9.60;99.90;;;;;;5032535;28;20051;-90
2022/11/14 04:38:56;;;;;;;2.25;1.85;;;9.60;99.90;;;;;;5033520;28;20063;-90
2022/11/14 04:41:23;;;;;;;2.13;1.50;;;9.60;99.90;;;;;;5034102;28;20084;-89
2022/11/14 04:43:49;;;;;;;2.47;1.70;;;9.60;99.90;;;;;;5036440;28;20053;-88
2022/11/14 04:46:16;;;;;;;2.90;1.88;;;9.60;99.90;;;;;;5020141;28;20071;-90
2022/11/14 04:48:43;;;;;;;1.80;1.35;;;9.60;99.90;;;;;;5015420;28;20489;-88
2022/11/14 04:51:10;;;;;;;1.50;1.08;;;9.60;99.90;;;;;;5024435;28;20045;-88
2022/11/14 04:53:37;;;;;;;2.05;1.50;;;9.60;99.90;;;;;;5028524;28;20053;-89
2022/11/14 04:56:04;;;;;;;1.90;1.55;;;9.60;99.90;;;;;;5020085;28;20521;-88
2022/11/14 04:58:31;;;;;;;1.55;1.13;;;9.60;99.90;;;;;;5019229;28;20441;-89
2022/11/14 05:00:58;;;;;;;1.58;1.38;;;9.60;99.90;;;;;;5017887;28;20044;-89
2022/11/14 05:03:25;;;;;;;1.13;1.00;;;9.60;99.90;;;;;;5022031;28;20048;-87
2022/11/14 05:05:52;;;;;;;1.58;1.23;;;9.60;99.90;;;;;;5020141;28;20135;-87
2022/11/14 05:08:18;;;;;;;1.17;0.98;;;9.70;99.90;;;;;;5018877;28;20057;-88
2022/11/14 05:10:45;;;;;;;1.77;1.30;;;9.70;99.90;;;;;;5015868;28;20101;-89
2022/11/14 05:13:12;;;;;;;2.00;1.30;;;9.70;99.90;;;;;;5000885;28;20625;-89
2022/11/14 05:15:39;;;;;;;1.55;1.17;;;9.70;99.90;;;;;;5014363;28;20136;-89
2022/11/14 05:18:06;;;;;;;1.33;1.05;;;9.70;99.90;;;;;;4998954;28;20695;-87
2022/11/14 05:20:33;;;;;;;1.60;1.05;;;9.70;99.90;;;;;;5015741;28;20061;-85
2022/11/14 05:23:00;;;;;;;1.60;1.10;;;9.70;99.90;;;;;;5029193;28;20049;-88
2022/11/14 05:25:26;;;;;;;1.83;1.50;;;9.70;99.90;;;;;;4999860;28;20048;-87
2022/11/14 05:27:53;;;;;;;2.13;1.50;;;9.70;99.90;;;;;;5003423;28;20042;-87
2022/11/14 05:30:20;;;;;;;1.58;1.38;;;9.70;99.90;;;;;;5032761;28;20055;-88
2022/11/14 05:32:47;;;;;;;2.05;1.38;;;9.70;99.90;;;;;;5033182;28;20053;-85
2022/11/14 05:35:14;;;;;;;2.08;1.50;;;9.70;99.90;;;;;;5014555;28;20063;-87
2022/11/14 05:37:40;;;;;;;1.50;1.13;;;9.70;99.90;;;;;;5015892;28;20460;-88
2022/11/14 05:40:08;;;;;;;1.65;1.42;;;9.70;99.90;;;;;;5031419;28;20057;-87
2022/11/14 05:42:35;;;;;;;1.10;0.90;;;9.70;99.90;;;;;;5034072;28;20049;-87
2022/11/14 05:45:02;;;;;;;1.65;1.30;;;9.70;99.90;;;;;;5018760;28;20057;-89
2022/11/14 05:47:28;;;;;;;1.52;1.17;;;9.70;99.90;;;;;;5018565;28;20057;-88
2022/11/14 05:49:56;;;;;;;2.08;1.48;;;9.70;99.90;;;;;;5014357;28;20147;-86
2022/11/14 05:52:23;;;;;;;1.20;1.10;;;9.70;99.90;;;;;;4995814;28;20049;-85
2022/11/14 05:54:50;;;;;;;1.52;1.25;;;9.70;99.90;;;;;;5011412;28;20064;-85
2022/11/14 05:57:19;;;;;;;1.33;1.02;;;9.70;99.90;;;;;;4994728;28;20127;-87
2022/11/14 05:59:49;;;;;;;1.45;1.10;;;9.70;99.90;;;;;;5004576;28;20068;-84
2022/11/14 06:02:15;;;;;;;1.33;1.20;;;9.70;99.90;;;;;;5010660;28;20053;-86
2022/11/14 06:04:42;;;;;;;1.55;1.05;;;9.70;99.90;;;;;;4995723;28;20053;-90
2022/11/14 06:07:09;;;;;;;1.30;1.10;;;9.70;99.90;;;;;;5005914;28;20413;-87
2022/11/14 06:09:39;;;;;;;1.33;1.00;;;9.70;99.90;;;;;;5022648;28;20057;-87
2022/11/14 06:12:06;;;;;;;1.90;1.20;;;9.60;99.90;;;;;;5013809;28;20083;-86
2022/11/14 06:14:33;;;;;;;1.63;1.15;;;9.60;99.90;;;;;;5014823;28;20056;-88
2022/11/14 06:17:00;;;;;;;1.40;1.00;;;9.60;99.90;;;;;;5012809;28;20053;-89
2022/11/14 06:19:27;;;;;;;1.80;1.10;;;9.60;99.90;;;;;;5001736;28;20045;-88
2022/11/14 06:21:54;;;;;;;1.95;1.33;;;9.60;99.90;;;;;;5016584;28;20045;-89
2022/11/14 06:24:20;;;;;;;1.73;1.33;;;9.60;99.90;;;;;;5040777;28;20049;-88
2022/11/14 06:26:47;;;;;;;1.52;1.10;;;9.60;99.90;;;;;;5009159;28;20468;-87
2022/11/14 06:29:14;;;;;;;1.33;1.20;;;9.50;99.90;;;;;;5005905;28;20041;-86
2022/11/14 06:31:41;;;;;;;1.27;1.00;;;9.50;99.90;;;;;;5011139;28;20135;-87
2022/11/14 06:34:10;;;;;;;1.33;0.95;;;9.40;99.90;;;;;;5013559;28;20614;-87
2022/11/14 06:36:36;;;;;;;1.42;1.00;;;9.40;99.90;;;;;;5020788;28;20059;-87
2022/11/14 06:39:03;;;;;;;2.00;1.50;;;9.30;99.90;;;;;;5004988;28;20049;-91
2022/11/14 06:41:30;;;;;;;1.67;1.35;;;9.30;99.90;;;;;;4996712;28;20061;-90
2022/11/14 06:43:57;;;;;;;1.70;1.17;;;9.30;99.90;;;;;;5024660;28;20057;-87
2022/11/14 06:46:24;;;;;;;2.10;1.50;;;9.30;99.90;;;;;;5030126;28;20057;-86
2022/11/14 06:48:53;;;;;;;2.05;1.52;;;9.20;99.90;;;;;;5024009;28;20073;-90
2022/11/14 06:51:21;;;;;;;2.00;1.58;;;9.20;99.90;;;;;;5008833;28;20503;-88
2022/11/14 06:53:47;;;;;;;2.63;1.50;;;9.10;99.90;;;;;;5023536;28;20049;-89
2022/11/14 06:56:15;;;;;;;2.45;1.77;;;9.10;99.90;;;;;;5009433;28;20133;-87
2022/11/14 06:58:44;;;;;;;3.05;2.13;;;9.00;99.90;;;;;;5013211;28;20053;-88
2022/11/14 07:01:14;;;;;;;2.50;1.75;;;9.00;99.90;;;;;;5028056;28;20696;-89
2022/11/14 07:03:41;;;;;;;3.33;2.00;;;9.00;99.90;;;;;;5040889;28;20136;-93
2022/11/14 07:06:10;;;;;;;2.75;1.95;;;8.90;99.90;;;;;;5024659;28;20060;-91
2022/11/14 07:08:37;;;;;;;2.70;2.00;;;8.90;99.90;;;;;;5014644;28;20454;-90
2022/11/14 07:11:08;;;;;;;2.28;1.98;;;8.90;99.90;;;;;;4998361;28;20053;-91
2022/11/14 07:13:35;;;;;;;2.15;1.90;;;8.90;99.90;;;;;;5027859;28;20156;-91
2022/11/14 07:16:02;;;;;;;2.50;2.00;;;8.90;99.90;;;;;;5017726;28;20063;-91
2022/11/14 07:18:30;;;;;;;2.72;2.03;;;8.90;99.90;;;;;;5015268;28;20116;-90
2022/11/14 07:21:03;;;;;;;2.42;1.77;;;8.90;99.90;;;;;;5015411;28;20484;-91
2022/11/14 07:23:30;;;;;;;2.25;1.70;;;9.00;99.90;;;;;;5012340;28;20053;-91
2022/11/14 07:26:01;;;;;;;2.20;1.90;;;9.00;99.90;;;;;;4998629;28;20109;-91
2022/11/14 07:28:28;;;;;;;2.60;2.15;;;9.00;99.90;;;;;;5018309;28;20080;-89
2022/11/14 07:30:56;;;;;;;2.72;1.85;;;9.10;99.90;;;;;;5015997;28;20473;-91
2022/11/14 07:33:23;;;;;;;2.45;2.05;;;9.10;99.90;;;;;;5023163;28;20059;-89
2022/11/14 07:35:50;;;;;;;2.13;1.73;;;9.10;99.90;;;;;;5015176;28;20125;-90
2022/11/14 07:38:17;;;;;;;2.55;1.55;;;9.00;99.90;;;;;;5017691;28;20144;-90
2022/11/14 07:40:55;;;;;;;2.58;1.80;;;9.10;99.90;;;;;;5017484;28;20055;-90
2022/11/14 07:43:26;;;;;;;1.85;1.63;;;9.10;99.90;;;;;;5009763;28;20182;-90
2022/11/14 07:45:53;;;;;;;2.60;1.90;;;9.10;99.90;;;;;;4996677;28;20072;-90
2022/11/14 07:48:21;;;;;;;3.00;1.63;;;9.00;99.90;;;;;;4995675;28;20172;-91
2022/11/14 07:50:48;;;;;;;1.88;1.45;;;9.00;99.90;;;;;;5028734;28;20148;-89
2022/11/14 07:53:16;;;;;;;3.20;2.20;;;9.00;99.90;;;;;;5016330;28;20042;-90
2022/11/14 07:55:43;;;;;;;2.22;1.65;;;9.00;99.90;;;;;;4997020;28;20068;-92
2022/11/14 07:58:10;;;;;;;2.70;1.52;;;9.10;99.90;;;;;;4997386;28;20156;-92
2022/11/14 08:00:37;;;;;;;2.33;1.50;;;9.00;99.90;;;;;;5016611;28;20045;-92
2022/11/14 08:03:06;;;;;;;3.15;1.50;;;9.00;99.90;;;;;;5030337;28;20067;-91
2022/11/14 08:05:33;;;;;;;2.95;1.90;;;9.00;99.90;;;;;;5018214;28;20063;-91
2022/11/14 08:08:00;;;;;;;2.00;1.30;;;9.10;99.90;;;;;;5019604;28;20148;-91
2022/11/14 08:10:27;;;;;;;2.70;1.92;;;9.10;99.90;;;;;;5002270;28;20172;-91
2022/11/14 08:13:00;;;;;;;2.05;1.30;;;9.20;99.90;;;;;;5020772;28;20423;-91
2022/11/14 08:15:47;;;;;;;2.00;1.35;;;9.30;99.90;;;;;;5019562;28;20060;-91
2022/11/14 08:18:14;;;;;;;1.85;1.40;;;9.40;99.90;;;;;;4998883;28;20098;-91
2022/11/14 08:20:40;;;;;;;1.15;0.95;;;9.50;99.90;;;;;;5016712;28;20052;-91
2022/11/14 08:23:08;;;;;;;1.52;1.10;;;9.70;99.90;;;;;;5015863;28;20054;-91
2022/11/14 08:25:35;;;;;;;1.45;1.08;;;9.80;99.90;;;;;;5016151;28;20136;-91
2022/11/14 08:28:02;;;;;;;1.15;1.00;;;9.90;99.90;;;;;;5015770;28;20049;-92
2022/11/14 08:30:29;;;;;;;1.40;1.02;;;9.90;99.90;;;;;;5032250;28;20049;-91
2022/11/14 08:32:56;;;;;;;1.98;1.38;;;10.10;99.90;;;;;;5023609;28;20057;-91
2022/11/14 08:35:23;;;;;;;1.42;0.90;;;10.20;99.90;;;;;;5019308;28;20048;-91
2022/11/14 08:37:50;;;;;;;1.52;1.10;;;10.20;99.90;;;;;;5019190;28;20517;-92
2022/11/14 08:40:17;;;;;;;1.63;1.35;;;10.30;99.90;;;;;;5016096;28;20057;-92
2022/11/14 08:42:44;;;;;;;1.55;1.20;;;10.40;99.90;;;;;;5019469;28;20397;-91
2022/11/14 08:45:11;;;;;;;1.60;1.20;;;10.50;99.90;;;;;;5019646;28;20297;-90
2022/11/14 08:47:38;;;;;;;1.45;0.90;;;10.60;99.90;;;;;;5018657;28;20496;-92
2022/11/14 08:50:05;;;;;;;1.75;1.27;;;10.70;99.90;;;;;;5005395;28;20072;-92
2022/11/14 08:52:32;;;;;;;1.60;1.20;;;10.70;99.90;;;;;;5016618;28;20053;-92
2022/11/14 08:54:59;;;;;;;1.50;1.23;;;10.90;99.90;;;;;;5017563;28;20061;-91
2022/11/14 08:57:26;;;;;;;1.52;1.27;;;11.00;99.90;;;;;;5016492;28;20434;-91
2022/11/14 08:59:54;;;;;;;1.45;1.05;;;11.10;99.90;;;;;;5026292;28;20637;-91
2022/11/14 09:02:21;;;;;;;1.40;1.15;;;11.10;99.90;;;;;;5021655;28;20540;-92
2022/11/14 09:04:48;;;;;;;1.88;1.23;;;11.10;99.90;;;;;;5018230;28;20065;-91
2022/11/14 09:07:15;;;;;;;1.85;1.23;;;11.20;99.90;;;;;;5020524;28;20146;-88
2022/11/14 09:09:42;;;;;;;1.65;1.40;;;11.30;99.90;;;;;;5013573;28;20037;-87
2022/11/14 09:12:09;;;;;;;1.63;1.17;;;11.30;99.90;;;;;;5016945;28;20146;-88
2022/11/14 09:14:36;;;;;;;2.05;1.40;;;11.30;99.90;;;;;;5010082;28;20072;-92
2022/11/14 09:17:03;;;;;;;1.70;1.33;;;11.40;99.90;;;;;;5013905;28;20061;-92
2022/11/14 09:19:31;;;;;;;1.35;1.15;;;11.40;99.90;;;;;;5003247;28;20061;-91
2022/11/14 09:21:59;;;;;;;2.10;1.60;;;11.50;99.90;;;;;;5002708;28;20073;-88
2022/11/14 09:24:25;;;;;;;1.67;1.25;;;11.50;99.90;;;;;;5009929;28;20136;-88
2022/11/14 09:26:52;;;;;;;2.10;1.70;;;11.60;99.90;;;;;;5014001;28;20053;-89
2022/11/14 09:29:22;;;;;;;1.80;1.42;;;11.70;99.90;;;;;;5024807;28;20060;-89
2022/11/14 09:31:50;;;;;;;2.08;1.65;;;11.70;99.90;;;;;;5018795;28;20063;-89
2022/11/14 09:34:17;;;;;;;1.83;1.40;;;11.70;99.90;;;;;;5009838;28;20121;-89
2022/11/14 09:36:45;;;;;;;2.42;1.77;;;11.80;99.90;;;;;;5013751;28;20049;-89
2022/11/14 09:39:12;;;;;;;2.03;1.52;;;11.80;99.90;;;;;;5021286;28;20053;-89
2022/11/14 09:42:17;;;;;;;2.30;1.80;;;11.80;99.90;;;;;;5017066;28;20552;-89
2022/11/14 09:44:55;;;;;;;2.25;1.98;;;11.70;99.90;;;;;;5046742;28;20128;-89
2022/11/14 09:47:24;;;;;;;2.47;2.00;;;11.70;99.90;;;;;;5034148;28;20451;-89
2022/11/14 09:49:51;;;;;;;2.30;1.80;;;11.70;99.90;;;;;;5013181;28;20085;-87
2022/11/14 09:52:28;;;;;;;2.47;1.52;;;11.70;99.90;;;;;;5015804;28;20047;-89
2022/11/14 09:55:00;;;;;;;3.00;2.33;;;11.80;99.90;;;;;;4999082;28;20140;-90
2022/11/14 09:57:27;;;;;;;2.67;2.08;;;11.80;99.90;;;;;;5014503;28;20107;-89
2022/11/14 09:59:54;;;;;;;2.63;2.05;;;11.90;99.90;;;;;;5013466;28;20273;-89
2022/11/14 10:02:47;;;;;;;2.30;2.03;;;11.90;99.90;;;;;;5029063;28;20139;-89
2022/11/14 10:05:22;;;;;;;3.13;1.88;;;11.90;99.90;;;;;;5031991;28;20079;-88
2022/11/14 10:08:19;;;;;;;2.75;2.05;;;12.00;99.90;;;;;;5016102;28;20061;-89
2022/11/14 10:10:54;;;;;;;2.80;2.30;;;12.10;99.90;;;;;;5008612;28;20057;-89
2022/11/14 10:13:27;;;;;;;2.83;2.13;;;12.20;99.90;;;;;;5006403;28;20115;-90
2022/11/14 10:15:58;;;;;;;2.80;2.30;;;12.30;99.90;;;;;;5031599;28;20360;-89
2022/11/14 10:18:37;;;;;;;1.88;1.50;;;12.30;99.90;;;;;;5032918;28;20162;-88
2022/11/14 10:21:09;;;;;;;2.53;2.00;;;12.50;99.90;;;;;;5028960;28;20060;-89
2022/11/14 10:23:41;;;;;;;2.03;1.55;;;12.60;99.90;;;;;;5015845;28;20053;-88
2022/11/14 10:26:16;;;;;;;2.95;1.98;;;12.70;99.90;;;;;;5025724;28;20387;-90
2022/11/14 10:28:58;;;;;;;2.50;1.80;;;12.80;99.90;;;;;;5028205;28;20309;-90
2022/11/14 10:31:37;;;;;;;2.25;1.92;;;12.80;99.90;;;;;;5045528;28;20090;-90
2022/11/14 10:34:10;;;;;;;2.92;2.40;;;12.80;99.90;;;;;;5044797;28;20057;-89
2022/11/14 10:36:40;;;;;;;2.67;1.83;;;12.80;99.90;;;;;;5016164;28;20149;-89
2022/11/14 10:39:20;;;;;;;2.55;2.15;;;12.90;99.90;;;;;;5048573;28;20064;-89
2022/11/14 10:41:48;;;;;;;2.13;1.77;;;13.00;99.90;;;;;;5015071;28;20049;-90
2022/11/14 10:44:29;;;;;;;2.83;2.17;;;13.00;99.90;;;;;;5016881;28;20173;-89
2022/11/14 10:46:59;;;;;;;2.38;1.90;;;13.10;99.90;;;;;;5014248;28;20053;-89
2022/11/14 10:49:30;;;;;;;1.83;1.55;;;13.20;99.90;;;;;;5008138;28;20067;-88
2022/11/14 10:51:58;;;;;;;2.60;1.98;;;13.30;99.90;;;;;;5012943;28;20046;-89
2022/11/14 10:54:47;;;;;;;1.90;1.58;;;13.40;99.90;;;;;;5016682;28;20124;-89
2022/11/14 10:57:15;;;;;;;2.60;1.80;;;13.50;99.90;;;;;;5027083;28;20410;-89
2022/11/14 10:59:42;;;;;;;2.20;1.73;;;13.70;99.90;;;;;;5000380;28;20081;-89
2022/11/14 11:02:09;;;;;;;2.60;1.98;;;13.70;99.90;;;;;;5029534;28;20057;-89
2022/11/14 11:04:40;;;;;;;2.65;2.35;;;13.70;99.90;;;;;;5014824;28;20080;-89
2022/11/14 11:07:07;;;;;;;2.60;2.20;;;13.70;99.90;;;;;;5013565;28;20329;-89
2022/11/14 11:12:47;;;;;;;2.63;2.30;;;13.70;99.90;;;;;;5031923;28;20056;-90
2022/11/14 11:15:21;;;;;;;2.50;2.13;;;13.80;99.90;;;;;;5028049;28;20052;-89
2022/11/14 11:18:01;;;;;;;2.58;2.10;;;13.90;99.90;;;;;;5011713;28;20497;-91
2022/11/14 11:20:38;;;;;;;2.00;1.73;;;13.80;99.90;;;;;;5027784;28;20079;-91
2022/11/14 11:23:10;;;;;;;2.60;1.70;;;13.90;99.90;;;;;;5026940;28;20041;-91
2022/11/14 11:25:38;;;;;;;3.08;2.22;;;14.00;99.90;;;;;;5047272;28;20073;-90
2022/11/14 11:28:09;;;;;;;2.85;2.13;;;13.90;99.90;;;;;;5011396;28;20125;-90
2022/11/14 11:30:36;;;;;;;2.65;2.20;;;14.00;99.90;;;;;;5016709;28;20060;-91
2022/11/14 11:33:19;;;;;;;2.72;1.83;;;14.00;99.90;;;;;;5009212;28;20041;-90
2022/11/14 11:35:47;;;;;;;;;;;14.10;99.90;;;;;;5017928;28;20141;-91
2022/11/14 11:38:15;;;;;;;2.35;1.80;;;14.20;99.90;;;;;;5016993;28;20392;-91
2022/11/14 11:40:47;;;;;;;2.65;2.25;;;14.20;99.90;;;;;;5030124;28;20053;-90
2022/11/14 11:43:29;;;;;;;2.83;2.25;;;14.20;99.90;;;;;;5013882;28;20057;-90
2022/11/14 11:46:43;;;;;;;3.13;2.47;;;14.10;99.90;;;;;;5033660;28;20049;-91
2022/11/14 11:49:14;;;;;;;3.92;3.08;;;14.20;99.90;;;;;;5036764;28;20424;-91
2022/11/14 11:51:42;;;;;;;4.53;3.72;;;14.20;99.90;;;;;;5043037;28;20215;-91
2022/11/14 11:54:17;;;;;;;4.43;3.53;;;14.20;99.90;;;;;;5043797;28;20136;-91
2022/11/14 11:56:44;;;;;;;3.72;3.08;;;14.20;99.90;;;;;;5016836;28;20552;-90
2022/11/14 11:59:28;;;;;;;3.35;3.03;;;14.30;99.90;;;;;;5016842;28;20052;-92
2022/11/14 12:01:55;;;;;;;3.90;3.28;;;14.40;99.90;;;;;;5030695;28;20081;-91
2022/11/14 12:04:21;;;;;;;3.15;2.83;;;14.40;99.90;;;;;;5027909;28;20051;-91
2022/11/14 12:06:54;;;;;;;3.30;2.65;;;14.50;99.90;;;;;;5002551;28;20131;-91
2022/11/14 12:09:28;;;;;;;2.13;1.73;;;14.50;99.90;;;;;;5005483;28;20132;-91
2022/11/14 12:12:22;;;;;;;3.05;2.45;;;14.50;99.90;;;;;;5026663;28;20060;-91
2022/11/14 12:15:16;;;;;;;2.53;2.05;;;14.50;99.90;;;;;;5034488;28;20045;-91
2022/11/14 12:18:20;;;;;;;2.15;1.67;;;14.50;99.90;;;;;;5032436;28;20069;-94
2022/11/14 12:20:52;;;;;;;1.95;1.73;;;14.60;99.90;;;;;;5046750;28;20044;-92
2022/11/14 12:23:48;;;;;;;1.60;1.45;;;14.70;99.90;;;;;;5026756;28;20153;-90
2022/11/14 12:26:29;;;;;;;2.28;1.75;;;14.70;99.90;;;;;;5033120;28;20108;-90
2022/11/14 12:29:12;;;;;;;1.70;1.48;;;14.70;99.90;;;;;;5030941;28;20076;-92
2022/11/14 12:31:40;;;;;;;2.10;1.55;;;14.80;99.90;;;;;;5014577;28;20088;-91
2022/11/14 12:34:22;;;;;;;2.20;1.98;;;14.90;99.90;;;;;;5019658;28;20042;-88
2022/11/14 12:36:49;;;;;;;2.55;1.85;;;15.00;99.90;;;;;;5018547;28;20437;-91
2022/11/14 12:39:25;;;;;;;2.70;2.30;;;15.10;99.90;;;;;;5008999;28;20073;-92
2022/11/14 12:42:06;;;;;;;2.28;1.80;;;15.20;99.90;;;;;;5032731;28;20148;-90
2022/11/14 12:44:35;;;;;;;2.10;1.85;;;15.30;99.90;;;;;;5016902;28;20049;-91
2022/11/14 12:47:05;;;;;;;2.28;1.92;;;15.20;99.90;;;;;;5016045;28;20164;-91
2022/11/14 12:49:47;;;;;;;2.50;2.03;;;15.30;99.90;;;;;;5040294;28;20045;-89
2022/11/14 12:52:38;;;;;;;2.35;1.77;;;15.30;99.90;;;;;;5030223;28;20059;-89
2022/11/14 12:55:24;;;;;;;2.75;2.30;;;15.30;99.90;;;;;;5045204;28;20144;-89
2022/11/14 12:58:02;;;;;;;2.65;2.08;;;15.20;99.90;;;;;;5027456;28;20111;-89
2022/11/14 13:00:29;;;;;;;2.22;1.90;;;15.20;99.90;;;;;;5037149;28;20073;-90
2022/11/14 13:03:10;;;;;;;2.53;1.88;;;15.30;99.90;;;;;;5009034;28;20477;-90
2022/11/14 13:05:45;;;;;;;2.60;2.03;;;15.30;99.90;;;;;;5013437;28;20472;-90
2022/11/14 13:08:34;;;;;;;2.42;2.00;;;15.60;99.90;;;;;;5037157;28;20575;-90